Tropical Cyclones
[Index]
Main Index Home Page Stock Weather Photos Extreme Storms Discussion Storm News and Storm Chasing Reports Tropical Cyclones / Hurricanes / Typhoons Weather Data and Links Wild Fires / Bushfires Weather Observation Techniques Weather Picture Catalogue Tornado Pictures and Reports Stock Video Footage and DVDs for sale
Season 1963-1964 Tropical Cyclone HAZEL Track Map
Season 1963-1964 Summaries: [BoM-AU] [JTWC-AU] [JTWC-SIO] [JTWC-SPAC] [JTWC-SH]
<<- Previous TC | BoM 1963-1964 Season | Next TC ->>

click for intensity scale information  Lat/long Grid: Show Hide

 Date Labels: Show Hide

Bureau of Meteorology Tropical Cyclone Data

Name: HAZEL
Number: 386 / 196364_08

07 Mar 1964 01:00 UTC to 17 Mar 1964 01:00 UTC

    date/time    lat    long    hPa   cat  kts
1964-03-07 01   14.0   106.0   1001                     
1964-03-07 04   13.9   105.6   1001                     
1964-03-07 07   13.8   105.2   1001                     
1964-03-07 10   13.7   104.8   1001                     
1964-03-07 16   13.4   104.0   1001                     
1964-03-07 19   13.3   103.6   1001                     
1964-03-07 22   13.1   103.3   1001                     
1964-03-08 01   13.0   103.0   1001                     
1964-03-08 04   13.0   102.5   1000                     
1964-03-08 10   13.0   100.7    998                     
1964-03-08 16   13.0   100.1    996                     
1964-03-08 19   13.0    99.5    994    1                
1964-03-08 22   13.0    98.7    993    1                
1964-03-09 01   13.0    98.0    991    1                
1964-03-09 04   13.0    97.6    990    1                
1964-03-09 07   13.0    97.2    989    1                
1964-03-09 10   13.0    96.8    988    1                
1964-03-09 16   13.0    96.0    986    1                
1964-03-09 19   13.0    95.6    985    2                
1964-03-09 22   13.0    95.3    984    2                
1964-03-10 01   13.0    95.0    983    2                
1964-03-10 04   13.2    94.8    983    2                
1964-03-10 07   13.5    94.7    982    2                
1964-03-10 10   13.7    94.6    982    2                
1964-03-10 16   14.2    94.4    981    2                
1964-03-10 22   14.8    94.1    980    2                
1964-03-11 01   15.0    94.0    980    2                
1964-03-11 04   15.3    93.9    981    2                
1964-03-11 07   15.6    93.8    982    2                
1964-03-11 10   16.0    93.7    983    2                
1964-03-11 16   16.8    93.4    985    2                
1964-03-11 19   17.2    93.3    986    1                
1964-03-11 22   17.6    93.1    988    1                
1964-03-12 01   18.0    93.0    990    1                
1964-03-12 04   18.1    93.0    990    1                
1964-03-12 07   18.3    93.0    991    1                
1964-03-12 10   18.4    93.0    991    1                
1964-03-12 16   18.7    93.0    992    1                
1964-03-12 19   18.8    93.0    993    1                
1964-03-12 22   18.9    93.0    994    1                
1964-03-13 04   19.1    92.9    995    1                
1964-03-13 07   19.3    92.8    995    1                
1964-03-13 16   19.7    92.4    995    1                
1964-03-14 01   20.0    92.0    995    1                
1964-03-14 04   20.2    91.9    995    1                
1964-03-14 07   20.5    91.8    995    1                
1964-03-14 10   20.8    91.7    995    1                
1964-03-14 16   21.3    91.4    995    1                
1964-03-14 19   21.5    91.3    995    1                
1964-03-14 22   21.8    91.1    995    1                
1964-03-15 01   22.0    91.0    995    1                
1964-03-15 07   23.0    91.0    997                     
1964-03-15 16   24.5    91.0   1001                     
1964-03-15 22   25.5    91.0   1003                     
1964-03-16 04   26.5    91.5   1005                     
1964-03-16 07   27.0    92.0   1006                     
1964-03-16 10   27.5    92.5   1007                     
1964-03-16 16   28.5    93.5   1007                     
1964-03-16 19   29.0    94.0   1008                     
1964-03-16 22   29.5    94.5   1008                     
1964-03-17 01   30.0    95.0   1009                     
Winds are 10-min average.

Tropical cyclone tracks developed by Michael Bath using data from the Bureau of Meteorology and Google Maps.


[Australian Severe Weather index] [Copyright Notice] [Email Contacts] [Search This Site] [Privacy Policy]
Document: tropical_cyclone_hazel.htm Updated: 30 May 2013